Time;durP1;ratioP1;P1;durP2;ratioP2;P2;SDS_P1;SDS_P2;PMS_P1;PMS_P2;Temp;Humidity;BMP_temperature;BMP_pressure;BME280_temperature;BME280_humidity;BME280_pressure;Samples;Min_cycle;Max_cycle;Signal;HPM_P1;HPM_P2
2022/07/07 00:01:53;;;;;;;;;;;;;;;19.93;60.29;99985.69;4455155;32;19977;-86
2022/07/07 00:04:19;;;;;;;;;;;;;;;19.49;60.26;99982.44;4469358;32;20023;-83
2022/07/07 00:06:44;;;;;;;;;;;;;;;19.74;60.28;99982.56;4468895;32;25053;-86
2022/07/07 00:09:09;;;;;;;;;;;;;;;19.58;60.27;99995.06;4454699;32;19984;-85
2022/07/07 00:11:34;;;;;;;;;;;;;;;19.61;60.28;99990.44;4469326;32;20029;-85
2022/07/07 00:14:00;;;;;;;;;;;;;;;19.66;60.27;99992.78;4469179;32;20322;-84
2022/07/07 00:16:25;;;;;;;;;;;;;;;19.24;60.25;99999.88;4468445;32;28818;-84
2022/07/07 00:18:50;;;;;;;;;;;;;;;19.12;60.24;99990.06;4469272;32;19996;-84
2022/07/07 00:21:15;;;;;;;;;;;;;;;19.13;60.24;99986.47;4468960;32;19969;-85
2022/07/07 00:23:41;;;;;;;;;;;;;;;19.36;60.25;99989.44;4441473;32;20017;-85
2022/07/07 00:26:06;;;;;;;;;;;;;;;19.49;60.26;99993.84;4454764;32;20038;-87
2022/07/07 00:28:31;;;;;;;;;;;;;;;19.28;60.26;99985.53;4441859;32;20014;-86
2022/07/07 00:30:56;;;;;;;;;;;;;;;19.38;60.25;99979.63;4468794;32;23542;-89
2022/07/07 00:33:22;;;;;;;;;;;;;;;19.33;60.26;99980.78;4442035;32;19988;-85
2022/07/07 00:35:47;;;;;;;;;;;;;;;19.09;60.25;99979.72;4468592;32;28875;-88
2022/07/07 00:38:12;;;;;;;;;;;;;;;19.03;60.24;99980.13;4452639;32;20000;-88
2022/07/07 00:40:37;;;;;;;;;;;;;;;18.93;60.24;99981.66;4454862;32;20043;-89
2022/07/07 00:43:03;;;;;;;;;;;;;;;18.90;60.23;99973.91;4441684;32;20048;-87
2022/07/07 00:45:28;;;;;;;;;;;;;;;19.05;60.24;99975.59;4468972;32;19991;-84
2022/07/07 00:47:53;;;;;;;;;;;;;;;18.84;60.24;99979.56;4468034;32;29924;-84
2022/07/07 00:50:18;;;;;;;;;;;;;;;18.79;60.23;99979.84;4468201;32;28597;-83
2022/07/07 00:52:44;;;;;;;;;;;;;;;18.98;60.24;99984.84;4454838;32;20346;-85
2022/07/07 00:55:09;;;;;;;;;;;;;;;18.88;60.24;99981.91;4454539;32;20329;-85
2022/07/07 00:57:34;;;;;;;;;;;;;;;18.74;60.22;99989.84;4454527;32;20014;-84
2022/07/07 01:00:01;;;;;;;;;;;;;;;18.76;60.22;99987.13;4454513;32;20314;-85
2022/07/07 01:02:27;;;;;;;;;;;;;;;18.47;60.21;99989.72;4454432;32;20138;-85
2022/07/07 01:04:52;;;;;;;;;;;;;;;18.50;60.21;99997.44;4454546;32;19993;-85
2022/07/07 01:07:24;;;;;;;;;;;;;;;18.53;60.22;99993.75;4468964;32;26286;-93
2022/07/07 01:09:49;;;;;;;;;;;;;;;18.54;60.21;99996.31;4454987;32;20079;-89
2022/07/07 01:12:14;;;;;;;;;;;;;;;18.63;60.22;99993.13;4468719;32;19985;-89
2022/07/07 01:14:39;;;;;;;;;;;;;;;18.69;60.23;99989.25;4468619;32;19991;-89
2022/07/07 01:17:05;;;;;;;;;;;;;;;18.58;60.22;99989.91;4454263;32;20332;-89
2022/07/07 01:19:30;;;;;;;;;;;;;;;18.48;60.20;99994.06;4455223;32;19980;-89
2022/07/07 01:22:00;;;;;;;;;;;;;;;18.48;60.21;99994.06;4454747;32;20009;-89
2022/07/07 01:24:26;;;;;;;;;;;;;;;18.57;60.22;99985.56;4456896;32;20048;-88
2022/07/07 01:27:04;;;;;;;;;;;;;;;18.25;60.20;99989.31;4456289;32;20007;-89
2022/07/07 01:29:33;;;;;;;;;;;;;;;18.15;60.18;99990.78;4456552;32;19988;-89
2022/07/07 01:31:58;;;;;;;;;;;;;;;18.19;60.20;99989.66;4456220;32;20064;-92
2022/07/07 01:34:23;;;;;;;;;;;;;;;18.22;60.19;99994.78;4456751;32;19997;-89
2022/07/07 01:36:49;;;;;;;;;;;;;;;18.22;60.19;99994.78;4456760;32;19972;-88
2022/07/07 01:39:14;;;;;;;;;;;;;;;18.21;60.19;99983.34;4455873;32;21358;-88
2022/07/07 01:41:39;;;;;;;;;;;;;;;18.25;60.20;99989.31;4455968;32;20005;-88
2022/07/07 01:44:04;;;;;;;;;;;;;;;18.09;60.19;99994.63;4442680;32;22477;-88
2022/07/07 01:46:29;;;;;;;;;;;;;;;18.19;60.19;99995.78;4442801;32;24519;-89
2022/07/07 01:48:55;;;;;;;;;;;;;;;18.16;60.20;99997.75;4442547;32;31004;-88
2022/07/07 01:51:20;;;;;;;;;;;;;;;17.96;60.18;99999.75;4456218;32;20325;-88
2022/07/07 01:53:45;;;;;;;;;;;;;;;17.90;60.18;100002.75;4456161;32;20049;-88
2022/07/07 01:56:10;;;;;;;;;;;;;;;17.82;60.17;100012.91;4455769;32;21946;-88
2022/07/07 01:58:36;;;;;;;;;;;;;;;17.80;60.18;100006.87;4456225;32;19977;-88
2022/07/07 02:01:01;;;;;;;;;;;;;;;17.85;60.18;100003.97;4456188;32;19977;-88
2022/07/07 02:03:26;;;;;;;;;;;;;;;17.74;60.17;100012.47;4456210;32;20315;-88
2022/07/07 02:05:52;;;;;;;;;;;;;;;17.78;60.17;100003.50;4470517;32;20015;-88
2022/07/07 02:08:17;;;;;;;;;;;;;;;17.76;60.17;99998.31;4456121;32;19988;-87
2022/07/07 02:13:26;;;;;;;;;;;;;;;17.46;60.16;99998.22;4458584;32;20040;-90
2022/07/07 02:15:51;;;;;;;;;;;;;;;17.56;60.16;99993.31;4456266;32;19997;-91
2022/07/07 02:18:17;;;;;;;;;;;;;;;17.50;60.15;99998.88;4443125;32;20059;-88
2022/07/07 02:20:52;;;;;;;;;;;;;;;17.46;60.16;100000.84;4442902;32;20005;-90
2022/07/07 02:23:18;;;;;;;;;;;;;;;17.41;60.15;99999.41;4456014;32;20011;-90
2022/07/07 02:25:57;;;;;;;;;;;;;;;17.39;60.15;99994.25;4443162;32;19981;-89
2022/07/07 02:28:26;;;;;;;;;;;;;;;17.34;60.14;99995.44;4455104;32;19973;-90
2022/07/07 02:30:52;;;;;;;;;;;;;;;17.23;60.15;100001.28;4443822;32;20016;-90
2022/07/07 02:33:17;;;;;;;;;;;;;;;17.11;60.14;100009.87;4456385;32;20028;-92
2022/07/07 02:35:42;;;;;;;;;;;;;;;17.11;60.14;100007.25;4443542;32;19996;-90
2022/07/07 02:38:08;;;;;;;;;;;;;;;17.06;60.13;100004.88;4443452;32;20022;-91
2022/07/07 02:40:33;;;;;;;;;;;;;;;17.12;60.13;100003.66;4456065;32;19988;-90
2022/07/07 02:42:58;;;;;;;;;;;;;;;17.37;60.14;100001.38;4443599;32;19997;-90
2022/07/07 02:45:23;;;;;;;;;;;;;;;17.02;60.13;100008.56;4443510;32;20102;-92
2022/07/07 02:47:49;;;;;;;;;;;;;;;17.01;60.14;100012.12;4443576;32;19988;-90
2022/07/07 02:50:14;;;;;;;;;;;;;;;17.16;60.14;100008.69;4455651;32;22242;-91
2022/07/07 02:52:39;;;;;;;;;;;;;;;16.86;60.12;100010.34;4443653;32;19985;-91
2022/07/07 02:55:05;;;;;;;;;;;;;;;16.88;60.12;100009.34;4456904;32;20258;-91
2022/07/07 02:57:30;;;;;;;;;;;;;;;16.94;60.12;100012.56;4443940;32;19985;-91
2022/07/07 02:59:55;;;;;;;;;;;;;;;16.91;60.12;100010.09;4444590;32;20259;-92
2022/07/07 03:02:20;;;;;;;;;;;;;;;16.94;60.13;100007.28;4442587;32;20005;-87
2022/07/07 03:04:46;;;;;;;;;;;;;;;16.84;60.12;100014.84;4471670;32;23078;-87
2022/07/07 03:07:11;;;;;;;;;;;;;;;16.71;60.11;100013.78;4455904;32;19988;-86
2022/07/07 03:09:36;;;;;;;;;;;;;;;16.88;60.12;100016.37;4469410;32;21554;-87
2022/07/07 03:12:01;;;;;;;;;;;;;;;16.97;60.13;100007.97;4469188;32;20041;-88
2022/07/07 03:14:27;;;;;;;;;;;;;;;16.71;60.12;100012.00;4455493;32;20016;-88
2022/07/07 03:16:52;;;;;;;;;;;;;;;16.83;60.11;100014.00;4442227;32;19984;-88
2022/07/07 03:19:17;;;;;;;;;;;;;;;16.83;60.12;100008.72;4442588;32;19999;-89
2022/07/07 03:21:42;;;;;;;;;;;;;;;16.91;60.12;100004.84;4455273;32;20000;-87
2022/07/07 03:24:07;;;;;;;;;;;;;;;17.12;60.13;100003.66;4469649;32;22249;-88
2022/07/07 03:26:33;;;;;;;;;;;;;;;17.15;60.14;100009.59;4442845;32;21247;-88
2022/07/07 03:28:58;;;;;;;;;;;;;;;16.99;60.12;100007.88;4455577;32;20003;-88
2022/07/07 03:31:23;;;;;;;;;;;;;;;17.11;60.14;100007.25;4455248;32;20304;-88
2022/07/07 03:33:48;;;;;;;;;;;;;;;16.94;60.12;100012.56;4442346;32;19992;-88
2022/07/07 03:36:14;;;;;;;;;;;;;;;17.13;60.13;100008.00;4469562;32;20081;-87
2022/07/07 03:38:39;;;;;;;;;;;;;;;17.06;60.12;100014.53;4469315;32;20007;-88
2022/07/07 03:41:04;;;;;;;;;;;;;;;17.18;60.13;100011.22;4470521;32;19996;-92
2022/07/07 03:43:30;;;;;;;;;;;;;;;17.24;60.14;100010.03;4443032;32;19973;-91
2022/07/07 03:45:55;;;;;;;;;;;;;;;17.25;60.14;100009.94;4442655;32;19973;-90
2022/07/07 03:48:20;;;;;;;;;;;;;;;17.23;60.15;100011.81;4442979;32;19993;-91
2022/07/07 03:50:45;;;;;;;;;;;;;;;17.45;60.16;100012.31;4454770;32;19981;-89
2022/07/07 03:53:11;;;;;;;;;;;;;;;17.71;60.17;100012.66;4469666;32;19981;-89
2022/07/07 03:55:36;;;;;;;;;;;;;;;17.29;60.15;100006.22;4441978;32;20032;-88
2022/07/07 03:58:02;;;;;;;;;;;;;;;17.34;60.14;100009.44;4442355;32;19988;-89
2022/07/07 04:00:27;;;;;;;;;;;;;;;17.48;60.16;100014.78;4455343;32;20001;-88
2022/07/07 04:02:52;;;;;;;;;;;;;;;17.17;60.14;100007.75;4454639;32;24784;-88
2022/07/07 04:05:17;;;;;;;;;;;;;;;17.54;60.16;100004.84;4455112;32;19984;-89
2022/07/07 04:07:44;;;;;;;;;;;;;;;17.37;60.14;100001.38;4455291;32;20317;-87
2022/07/07 04:10:09;;;;;;;;;;;;;;;17.54;60.16;100005.69;4442169;32;20015;-90
2022/07/07 04:12:34;;;;;;;;;;;;;;;17.46;60.15;100000.84;4441747;32;25346;-89
2022/07/07 04:15:00;;;;;;;;;;;;;;;17.95;60.17;99994.59;4442123;32;19976;-89
2022/07/07 04:17:25;;;;;;;;;;;;;;;18.05;60.18;100001.88;4454966;32;19991;-88
2022/07/07 04:19:50;;;;;;;;;;;;;;;18.14;60.18;100000.47;4470161;32;19989;-90
2022/07/07 04:22:16;;;;;;;;;;;;;;;18.45;60.20;99993.37;4441565;32;19988;-90
2022/07/07 04:24:41;;;;;;;;;;;;;;;18.50;60.21;99994.81;4441909;32;19969;-89
2022/07/07 04:27:08;;;;;;;;;;;;;;;18.57;60.21;99982.09;4455235;32;20076;-91
2022/07/07 04:29:33;;;;;;;;;;;;;;;18.88;60.22;99987.19;4455611;32;20012;-91
2022/07/07 04:31:59;;;;;;;;;;;;;;;19.04;60.23;99981.81;4441815;32;20018;-90
2022/07/07 04:34:24;;;;;;;;;;;;;;;19.10;60.23;99970.84;4455373;32;19992;-90
2022/07/07 04:36:49;;;;;;;;;;;;;;;19.32;60.25;99975.59;4455298;32;20332;-91
2022/07/07 04:39:14;;;;;;;;;;;;;;;19.51;60.25;99983.19;4442164;32;20004;-91
2022/07/07 04:41:40;;;;;;;;;;;;;;;19.54;60.27;99980.38;4446941;32;19994;-91
2022/07/07 04:44:05;;;;;;;;;;;;;;;19.61;60.27;99985.16;4462650;32;19983;-91
2022/07/07 04:46:30;;;;;;;;;;;;;;;19.57;60.26;99975.75;4442539;32;20034;-91
2022/07/07 04:48:56;;;;;;;;;;;;;;;19.72;60.27;99973.91;4454995;32;20332;-91
2022/07/07 04:51:22;;;;;;;;;;;;;;;19.85;60.28;99980.03;4441877;32;21336;-91
2022/07/07 04:53:47;;;;;;;;;;;;;;;20.11;60.29;99974.78;4455084;32;20004;-91
2022/07/07 04:56:12;;;;;;;;;;;;;;;20.00;60.28;99972.03;4441969;32;20011;-90
2022/07/07 04:58:38;;;;;;;;;;;;;;;20.11;60.29;99975.66;4454710;32;20277;-91
2022/07/07 05:01:03;;;;;;;;;;;;;;;20.12;60.29;99982.66;4441999;32;20111;-90
2022/07/07 05:03:28;;;;;;;;;;;;;;;20.38;60.30;99974.75;4455363;32;19980;-90
2022/07/07 05:05:53;;;;;;;;;;;;;;;20.43;60.31;99976.13;4456731;32;19980;-92
2022/07/07 05:08:19;;;;;;;;;;;;;;;20.60;60.31;99971.47;4435841;32;20015;-90
2022/07/07 05:10:44;;;;;;;;;;;;;;;20.68;60.32;99979.72;4439803;32;19980;-90
2022/07/07 05:13:09;;;;;;;;;;;;;;;20.69;60.32;99981.41;4456316;32;20287;-90
2022/07/07 05:15:34;;;;;;;;;;;;;;;21.02;60.34;99978.16;4456595;32;20053;-90
2022/07/07 05:18:00;;;;;;;;;;;;;;;21.01;60.34;99973.81;4443609;32;19984;-90
2022/07/07 05:20:25;;;;;;;;;;;;;;;21.06;60.34;99975.22;4443560;32;19993;-90
2022/07/07 05:22:50;;;;;;;;;;;;;;;21.25;60.35;99979.19;4443206;32;20038;-90
2022/07/07 05:25:15;;;;;;;;;;;;;;;21.43;60.36;99980.50;4455590;32;28226;-89
2022/07/07 05:27:44;;;;;;;;;;;;;;;21.68;60.37;99979.53;4456463;32;20025;-90
2022/07/07 05:30:09;;;;;;;;;;;;;;;21.82;60.38;99966.12;4443715;32;19989;-90
2022/07/07 05:32:34;;;;;;;;;;;;;;;22.16;60.39;99968.88;4456378;32;20300;-91
2022/07/07 05:35:00;;;;;;;;;;;;;;;22.25;60.41;99966.38;4456181;32;20005;-91
2022/07/07 05:37:25;;;;;;;;;;;;;;;22.51;60.42;99966.19;4442879;32;22589;-91
2022/07/07 05:39:51;;;;;;;;;;;;;;;22.71;60.42;99965.44;4456472;32;19969;-93
2022/07/07 05:42:16;;;;;;;;;;;;;;;23.06;60.44;99967.12;4443453;32;20000;-91
2022/07/07 05:44:41;;;;;;;;;;;;;;;23.23;60.45;99964.81;4456308;32;19992;-93
2022/07/07 05:47:06;;;;;;;;;;;;;;;23.13;60.45;99978.94;4443810;32;20036;-91
2022/07/07 05:49:32;;;;;;;;;;;;;;;23.26;60.45;99974.34;4443659;32;19993;-91
2022/07/07 05:51:58;;;;;;;;;;;;;;;23.55;60.46;99971.97;4455381;32;20004;-90
2022/07/07 05:54:24;;;;;;;;;;;;;;;23.52;60.47;99970.41;4456372;32;20460;-91
2022/07/07 05:56:49;;;;;;;;;;;;;;;23.67;60.48;99970.16;4455878;32;20039;-91
2022/07/07 05:59:14;;;;;;;;;;;;;;;23.67;60.48;99962.19;4456373;32;19965;-91
2022/07/07 06:01:40;;;;;;;;;;;;;;;24.02;60.50;99957.38;4470433;32;20376;-91
2022/07/07 06:04:06;;;;;;;;;;;;;;;24.09;60.49;99961.22;4456214;32;20127;-91
2022/07/07 06:06:31;;;;;;;;;;;;;;;24.14;60.51;99959.03;4470913;32;20352;-90
2022/07/07 06:08:56;;;;;;;;;;;;;;;24.21;60.51;99961.16;4470550;32;20005;-91
2022/07/07 06:11:22;;;;;;;;;;;;;;;24.37;60.51;99956.22;4443546;32;20354;-91
2022/07/07 06:13:47;;;;;;;;;;;;;;;24.47;60.52;99962.44;4443787;32;20083;-91
2022/07/07 06:16:12;;;;;;;;;;;;;;;24.54;60.53;99957.44;4445043;32;19996;-91
2022/07/07 06:18:37;;;;;;;;;;;;;;;24.77;60.53;99958.94;4459046;32;20332;-91
2022/07/07 06:21:03;;;;;;;;;;;;;;;24.91;60.54;99961.22;4457583;32;21753;-92
2022/07/07 06:23:29;;;;;;;;;;;;;;;25.12;60.54;99958.53;4445541;32;20007;-92
2022/07/07 06:25:54;;;;;;;;;;;;;;;25.40;60.57;99959.53;4456360;32;20006;-91
2022/07/07 06:28:20;;;;;;;;;;;;;;;25.46;60.57;99955.47;4470259;32;20000;-91
2022/07/07 06:30:45;;;;;;;;;;;;;;;25.47;60.57;99962.50;4443186;32;19973;-90
2022/07/07 06:33:10;;;;;;;;;;;;;;;25.73;60.58;99960.16;4456055;32;19982;-92
2022/07/07 06:35:36;;;;;;;;;;;;;;;26.00;60.59;99955.75;4443326;32;19984;-91
2022/07/07 06:38:01;;;;;;;;;;;;;;;26.07;60.60;99958.72;4470287;32;19986;-91
2022/07/07 06:40:26;;;;;;;;;;;;;;;26.25;60.61;99962.31;4455959;32;19985;-90
2022/07/07 06:42:52;;;;;;;;;;;;;;;26.33;60.62;99955.44;4455707;32;19985;-90
2022/07/07 06:45:17;;;;;;;;;;;;;;;26.66;60.63;99952.25;4442911;32;20036;-89
2022/07/07 06:47:42;;;;;;;;;;;;;;;26.79;60.64;99958.09;4469846;32;20006;-90
2022/07/07 06:50:09;;;;;;;;;;;;;;;27.08;60.65;99959.81;4455948;32;19984;-90
2022/07/07 06:52:34;;;;;;;;;;;;;;;27.27;60.66;99949.00;4443008;32;20347;-90
2022/07/07 06:54:59;;;;;;;;;;;;;;;27.60;60.68;99949.31;4442994;32;19996;-90
2022/07/07 06:57:25;;;;;;;;;;;;;;;27.90;60.70;99945.41;4455847;32;19981;-91
2022/07/07 06:59:50;;;;;;;;;;;;;;;28.13;60.71;99938.56;4442365;32;23899;-90
2022/07/07 07:02:15;;;;;;;;;;;;;;;28.18;60.71;99944.31;4469887;32;20017;-90
2022/07/07 07:04:40;;;;;;;;;;;;;;;28.25;60.72;99939.19;4442856;32;20300;-91
2022/07/07 07:07:06;;;;;;;;;;;;;;;28.20;60.70;99939.63;4469868;32;20000;-91
2022/07/07 07:12:34;;;;;;;;;;;;;;;28.16;60.71;99948.97;4469881;32;20030;-91
2022/07/07 07:14:59;;;;;;;;;;;;;;;28.20;60.71;99946.81;4442631;32;20008;-91
2022/07/07 07:17:24;;;;;;;;;;;;;;;28.31;60.72;99941.22;4455699;32;20234;-91
2022/07/07 07:19:50;;;;;;;;;;;;;;;28.57;60.73;99938.50;4455647;32;19980;-91
2022/07/07 07:22:15;;;;;;;;;;;;;;;28.70;60.74;99941.59;4442756;32;20269;-90
2022/07/07 07:24:40;;;;;;;;;;;;;;;28.56;60.73;99935.00;4442432;32;20001;-91
2022/07/07 07:27:05;;;;;;;;;;;;;;;28.60;60.73;99941.72;4441841;32;20041;-90
2022/07/07 07:29:31;;;;;;;;;;;;;;;28.69;60.73;99932.72;4442826;32;20000;-91
2022/07/07 07:31:56;;;;;;;;;;;;;;;28.87;60.74;99926.47;4455673;32;20315;-91
2022/07/07 07:34:21;;;;;;;;;;;;;;;29.01;60.76;99920.47;4455681;32;20047;-90
2022/07/07 07:36:46;;;;;;;;;;;;;;;28.80;60.74;99926.22;4455477;32;20055;-91
2022/07/07 07:39:12;;;;;;;;;;;;;;;28.88;60.74;99923.63;4455735;32;19992;-92
2022/07/07 07:41:38;;;;;;;;;;;;;;;28.91;60.74;99925.97;4455767;32;20365;-91
2022/07/07 07:44:03;;;;;;;;;;;;;;;29.04;60.75;99930.88;4469992;32;19999;-91
2022/07/07 07:46:28;;;;;;;;;;;;;;;28.98;60.75;99920.81;4443007;32;19993;-90
2022/07/07 07:48:54;;;;;;;;;;;;;;;28.80;60.74;99930.75;4455863;32;19988;-91
2022/07/07 07:51:19;;;;;;;;;;;;;;;29.00;60.76;99930.34;4455908;32;20017;-91
2022/07/07 07:53:44;;;;;;;;;;;;;;;29.20;60.76;99928.22;4456746;32;20029;-91
2022/07/07 07:56:09;;;;;;;;;;;;;;;29.50;60.78;99934.00;4457650;32;20353;-91
2022/07/07 07:58:34;;;;;;;;;;;;;;;29.54;60.77;99929.97;4449591;32;20050;-91
2022/07/07 08:01:00;;;;;;;;;;;;;;;29.55;60.77;99927.13;4466522;32;20004;-91
2022/07/07 08:03:25;;;;;;;;;;;;;;;29.70;60.78;99931.84;4470509;32;19973;-91
2022/07/07 08:05:50;;;;;;;;;;;;;;;29.59;60.78;99933.84;4455217;32;20000;-91
2022/07/07 08:08:15;;;;;;;;;;;;;;;29.99;60.80;99934.00;4455264;32;20015;-91
2022/07/07 08:10:41;;;;;;;;;;;;;;;30.20;60.82;99935.16;4454918;32;19992;-91
2022/07/07 08:13:06;;;;;;;;;;;;;;;30.40;60.82;99921.38;4442402;32;20016;-91
2022/07/07 08:15:31;;;;;;;;;;;;;;;30.50;60.82;99916.63;4455152;32;19965;-91
2022/07/07 08:17:56;;;;;;;;;;;;;;;30.55;60.83;99920.50;4454962;32;20253;-91
2022/07/07 08:20:22;;;;;;;;;;;;;;;30.51;60.83;99916.44;4477543;32;20004;-91
2022/07/07 08:22:47;;;;;;;;;;;;;;;30.56;60.83;99921.31;4444803;32;20032;-91
2022/07/07 08:25:12;;;;;;;;;;;;;;;30.45;60.83;99921.69;4441615;32;21547;-90
2022/07/07 08:27:37;;;;;;;;;;;;;;;30.52;60.84;99922.66;4455045;32;20032;-90
2022/07/07 08:30:05;;;;;;;;;;;;;;;30.28;60.82;99923.56;4441637;32;20257;-91
2022/07/07 08:32:30;;;;;;;;;;;;;;;30.41;60.82;99920.34;4455348;32;20060;-90
2022/07/07 08:34:55;;;;;;;;;;;;;;;30.64;60.83;99921.31;4454915;32;19977;-90
2022/07/07 08:37:20;;;;;;;;;;;;;;;30.67;60.83;99920.13;4441756;32;19985;-89
2022/07/07 08:39:46;;;;;;;;;;;;;;;30.49;60.83;99923.00;4454634;32;20008;-89
2022/07/07 08:42:11;;;;;;;;;;;;;;;30.21;60.82;99915.38;4468826;32;19993;-89
2022/07/07 08:44:36;;;;;;;;;;;;;;;30.20;60.82;99921.75;4454978;32;19989;-89
2022/07/07 08:47:01;;;;;;;;;;;;;;;30.00;60.80;99925.78;4454679;32;20032;-89
2022/07/07 08:49:27;;;;;;;;;;;;;;;29.81;60.80;99926.13;4454678;32;20306;-89
2022/07/07 08:51:52;;;;;;;;;;;;;;;29.96;60.81;99916.38;4454684;32;20020;-89
2022/07/07 08:54:17;;;;;;;;;;;;;;;30.01;60.80;99916.72;4454072;32;27783;-89
2022/07/07 08:56:42;;;;;;;;;;;;;;;29.87;60.80;99910.19;4469002;32;20015;-89
2022/07/07 08:59:08;;;;;;;;;;;;;;;29.79;60.79;99914.72;4454656;32;20036;-89
2022/07/07 09:01:34;;;;;;;;;;;;;;;30.06;60.81;99914.41;4454677;32;20003;-89
2022/07/07 09:03:59;;;;;;;;;;;;;;;30.21;60.82;99907.31;4454452;32;20333;-89
2022/07/07 09:06:24;;;;;;;;;;;;;;;30.28;60.83;99912.00;4441676;32;19992;-89
2022/07/07 09:08:50;;;;;;;;;;;;;;;30.47;60.83;99896.31;4453999;32;26434;-89
2022/07/07 09:11:15;;;;;;;;;;;;;;;30.48;60.83;99898.00;4468804;32;19981;-89
2022/07/07 09:13:40;;;;;;;;;;;;;;;30.84;60.85;99903.75;4468128;32;23907;-89
2022/07/07 09:16:23;;;;;;;;;;;;;;;30.91;60.86;99898.50;4454018;32;20314;-88
2022/07/07 09:18:49;;;;;;;;;;;;;;;31.13;60.86;99896.88;4454470;32;20042;-88
2022/07/07 09:21:28;;;;;;;;;;;;;;;30.91;60.84;99895.81;4454531;32;19985;-88
2022/07/07 09:23:54;;;;;;;;;;;;;;;30.94;60.85;99900.00;4454860;32;19986;-88
2022/07/07 09:26:35;;;;;;;;;;;;;;;31.18;60.87;99890.97;4468800;32;19969;-88
2022/07/07 09:29:00;;;;;;;;;;;;;;;31.31;60.88;99900.16;4459443;32;20005;-87
2022/07/07 09:31:25;;;;;;;;;;;;;;;31.62;60.89;99892.00;4454910;32;20008;-89
2022/07/07 09:34:09;;;;;;;;;;;;;;;31.84;60.89;99894.84;4454554;32;30686;-88
2022/07/07 09:39:19;;;;;;;;;;;;;;;31.99;60.91;99899.25;4475597;32;19968;-87
2022/07/07 09:41:44;;;;;;;;;;;;;;;32.11;60.92;99905.03;4469518;32;27839;-88
2022/07/07 09:44:09;;;;;;;;;;;;;;;32.09;60.91;99906.22;4453459;32;25937;-88
2022/07/07 09:46:34;;;;;;;;;;;;;;;32.14;60.92;99907.34;4453469;32;23165;-87
2022/07/07 09:48:59;;;;;;;;;;;;;;;31.97;60.90;99901.31;4468372;32;20596;-87
2022/07/07 09:51:27;;;;;;;;;;;;;;;32.09;60.91;99900.84;4470483;32;19969;-87
2022/07/07 09:53:55;;;;;;;;;;;;;;;32.08;60.91;99901.87;4470410;32;19977;-87
2022/07/07 09:56:21;;;;;;;;;;;;;;;32.18;60.91;99891.63;4470511;32;19976;-85
2022/07/07 09:58:46;;;;;;;;;;;;;;;32.46;60.93;99890.03;4456191;32;20006;-85
2022/07/07 10:01:12;;;;;;;;;;;;;;;32.36;60.93;99892.97;4456169;32;20019;-85
2022/07/07 10:03:37;;;;;;;;;;;;;;;32.26;60.92;99883.53;4470155;32;20360;-85
2022/07/07 10:06:02;;;;;;;;;;;;;;;32.33;60.92;99887.13;4455379;32;29142;-85
2022/07/07 10:08:28;;;;;;;;;;;;;;;32.19;60.92;99883.41;4456157;32;20039;-85
2022/07/07 10:10:54;;;;;;;;;;;;;;;32.22;60.92;99887.59;4456070;32;20050;-85
2022/07/07 10:13:19;;;;;;;;;;;;;;;32.18;60.93;99884.44;4470248;32;20038;-85
2022/07/07 10:15:44;;;;;;;;;;;;;;;31.96;60.90;99899.63;4455429;32;24627;-85
2022/07/07 10:18:09;;;;;;;;;;;;;;;31.53;60.88;99884.19;4455324;32;28400;-85
2022/07/07 10:20:35;;;;;;;;;;;;;;;31.40;60.88;99890.97;4469762;32;26212;-85
2022/07/07 10:23:00;;;;;;;;;;;;;;;31.23;60.86;99891.28;4455868;32;20277;-86
2022/07/07 10:25:25;;;;;;;;;;;;;;;30.90;60.85;99885.25;4455710;32;19977;-86
2022/07/07 10:27:53;;;;;;;;;;;;;;;30.68;60.85;99884.19;4455362;32;21882;-85
2022/07/07 10:30:28;;;;;;;;;;;;;;;30.46;60.83;99888.44;4442875;32;19992;-85
2022/07/07 10:32:54;;;;;;;;;;;;;;;29.77;60.80;99896.09;4470227;32;19965;-86
2022/07/07 10:35:19;;;;;;;;;;;;;;;29.51;60.79;99898.12;4455690;32;20007;-84
2022/07/07 10:37:48;;;;;;;;;;;;;;;29.66;60.80;99892.94;4470006;32;20326;-85
2022/07/07 10:40:17;;;;;;;;;;;;;;;29.67;60.79;99897.31;4455869;32;20089;-85
2022/07/07 10:42:43;;;;;;;;;;;;;;;29.84;60.80;99891.75;4442852;32;19991;-85
2022/07/07 10:45:10;;;;;;;;;;;;;;;29.81;60.80;99892.09;4470032;32;19965;-85
2022/07/07 10:47:35;;;;;;;;;;;;;;;29.72;60.81;99892.25;4456122;32;19985;-85
2022/07/07 10:50:01;;;;;;;;;;;;;;;29.79;60.81;99886.03;4470136;32;19987;-85
2022/07/07 10:52:39;;;;;;;;;;;;;;;30.13;60.82;99876.97;4455579;32;20277;-85
2022/07/07 10:55:04;;;;;;;;;;;;;;;30.07;60.82;99881.19;4470161;32;20471;-85
2022/07/07 10:57:39;;;;;;;;;;;;;;;30.31;60.83;99890.19;4470017;32;20004;-85
2022/07/07 11:00:09;;;;;;;;;;;;;;;30.37;60.83;99881.44;4455523;32;20011;-85
2022/07/07 11:02:35;;;;;;;;;;;;;;;30.41;60.83;99877.38;4455495;32;19964;-85
2022/07/07 11:05:23;;;;;;;;;;;;;;;30.64;60.84;99874.81;4455789;32;19968;-85
2022/07/07 11:07:59;;;;;;;;;;;;;;;30.84;60.86;99876.03;4455222;32;30678;-85
2022/07/07 11:10:50;;;;;;;;;;;;;;;31.43;60.88;99865.56;4470135;32;20007;-85
2022/07/07 11:13:17;;;;;;;;;;;;;;;31.72;60.90;99862.19;4466911;32;20320;-85
2022/07/07 11:15:43;;;;;;;;;;;;;;;32.01;60.91;99864.06;4456004;32;19965;-85
2022/07/07 11:18:09;;;;;;;;;;;;;;;31.91;60.90;99853.56;4470452;32;19973;-85
2022/07/07 11:20:34;;;;;;;;;;;;;;;31.94;60.91;99855.91;4455691;32;20007;-85
2022/07/07 11:23:07;;;;;;;;;;;;;;;31.97;60.91;99849.31;4442519;32;19985;-86
2022/07/07 11:25:32;;;;;;;;;;;;;;;31.83;60.90;99850.97;4455797;32;20360;-85
2022/07/07 11:27:57;;;;;;;;;;;;;;;31.96;60.91;99845.78;4469687;32;20004;-85
2022/07/07 11:30:23;;;;;;;;;;;;;;;32.03;60.91;99848.56;4469762;32;20026;-85
2022/07/07 11:32:48;;;;;;;;;;;;;;;32.24;60.92;99840.56;4455591;32;20354;-85
2022/07/07 11:35:13;;;;;;;;;;;;;;;31.87;60.91;99840.66;4469829;32;20015;-85
2022/07/07 11:37:39;;;;;;;;;;;;;;;31.79;60.89;99843.44;4469582;32;20012;-85
2022/07/07 11:40:05;;;;;;;;;;;;;;;31.54;60.88;99845.50;4455461;32;20057;-85
2022/07/07 11:42:34;;;;;;;;;;;;;;;31.65;60.90;99837.81;4456329;32;20332;-85
2022/07/07 11:44:59;;;;;;;;;;;;;;;31.63;60.89;99831.75;4456563;32;19992;-85
2022/07/07 11:47:25;;;;;;;;;;;;;;;31.96;60.91;99826.94;4455390;32;20381;-85
2022/07/07 11:49:53;;;;;;;;;;;;;;;31.94;60.90;99825.41;4455413;32;20000;-86
2022/07/07 11:52:21;;;;;;;;;;;;;;;31.89;60.91;99823.28;4455239;32;20343;-85
2022/07/07 11:54:47;;;;;;;;;;;;;;;32.03;60.91;99814.41;4455674;32;19969;-86
2022/07/07 11:57:24;;;;;;;;;;;;;;;32.11;60.92;99807.22;4455187;32;20003;-86
2022/07/07 11:59:49;;;;;;;;;;;;;;;32.07;60.91;99817.53;4469897;32;20000;-85
2022/07/07 12:02:15;;;;;;;;;;;;;;;32.30;60.92;99804.00;4454816;32;20890;-86
2022/07/07 12:04:40;;;;;;;;;;;;;;;32.56;60.93;99807.00;4455430;32;19993;-86
2022/07/07 12:07:08;;;;;;;;;;;;;;;32.67;60.95;99798.44;4468799;32;25580;-85
2022/07/07 12:09:34;;;;;;;;;;;;;;;32.81;60.95;99796.75;4455349;32;19989;-86
2022/07/07 12:11:59;;;;;;;;;;;;;;;33.12;60.96;99784.78;4469309;32;19972;-86
2022/07/07 12:14:24;;;;;;;;;;;;;;;32.60;60.94;99797.53;4469036;32;26478;-87
2022/07/07 12:16:50;;;;;;;;;;;;;;;32.68;60.95;99791.19;4454840;32;21981;-86
2022/07/07 12:19:15;;;;;;;;;;;;;;;32.65;60.94;99783.47;4455305;32;19981;-87
2022/07/07 12:21:42;;;;;;;;;;;;;;;32.58;60.93;99791.50;4455272;32;20410;-86
2022/07/07 12:24:07;;;;;;;;;;;;;;;32.07;60.91;99779.84;4439992;32;19983;-87
2022/07/07 12:26:41;;;;;;;;;;;;;;;32.26;60.92;99773.09;4465425;32;25059;-87
2022/07/07 12:29:08;;;;;;;;;;;;;;;32.38;60.93;99776.94;4469632;32;20049;-86
2022/07/07 12:31:33;;;;;;;;;;;;;;;32.19;60.92;99772.97;4455220;32;20234;-87
2022/07/07 12:34:08;;;;;;;;;;;;;;;31.93;60.90;99772.59;4441952;32;20007;-87
2022/07/07 12:36:33;;;;;;;;;;;;;;;31.98;60.91;99771.03;4469405;32;20049;-87
2022/07/07 12:38:59;;;;;;;;;;;;;;;31.86;60.91;99758.22;4455026;32;20004;-87
2022/07/07 12:41:27;;;;;;;;;;;;;;;31.95;60.91;99752.56;4443895;32;811446;-87
2022/07/07 12:43:56;;;;;;;;;;;;;;;31.63;60.90;99760.97;4441857;32;19985;-87
2022/07/07 12:46:31;;;;;;;;;;;;;;;31.42;60.88;99756.28;4455161;32;20003;-87
2022/07/07 12:48:57;;;;;;;;;;;;;;;31.18;60.87;99754.66;4454973;32;20024;-87